createdAt,value
2019-01-17T00:02:27.067Z,9.33
2019-01-17T00:05:13.938Z,8.50
2019-01-17T00:08:00.926Z,7.20
2019-01-17T00:10:48.156Z,8.40
2019-01-17T00:13:35.058Z,7.80
2019-01-17T00:16:22.372Z,8.78
2019-01-17T00:22:20.689Z,8.70
2019-01-17T00:25:07.635Z,9.05
2019-01-17T00:28:15.560Z,8.98
2019-01-17T00:31:02.246Z,9.93
2019-01-17T00:33:49.148Z,9.43
2019-01-17T00:36:31.071Z,8.58
2019-01-17T00:39:17.951Z,9.85
2019-01-17T00:42:18.009Z,9.48
2019-01-17T00:44:53.408Z,11.70
2019-01-17T00:47:40.240Z,9.38
2019-01-17T00:50:27.476Z,10.32
2019-01-17T00:53:14.322Z,9.00
2019-01-17T00:56:02.201Z,9.40
2019-01-17T00:58:49.046Z,9.23
2019-01-17T01:01:35.934Z,8.90
2019-01-17T01:04:23.860Z,8.15
2019-01-17T01:07:11.011Z,9.95
2019-01-17T01:09:57.890Z,9.70
2019-01-17T01:12:47.242Z,9.35
2019-01-17T01:15:34.529Z,9.33
2019-01-17T01:18:23.413Z,9.40
2019-01-17T01:21:10.350Z,9.73
2019-01-17T01:23:57.157Z,9.23
2019-01-17T01:26:44.034Z,10.38
2019-01-17T01:29:50.422Z,10.45
2019-01-17T01:32:37.262Z,8.33
2019-01-17T01:35:43.246Z,10.32
2019-01-17T01:38:30.190Z,9.78
2019-01-17T01:41:16.993Z,9.90
2019-01-17T01:44:03.926Z,9.40
2019-01-17T01:53:11.381Z,10.75
2019-01-17T01:55:39.281Z,10.75
2019-01-17T01:58:07.137Z,10.48
2019-01-17T02:00:35.071Z,10.30
2019-01-17T02:03:21.934Z,10.48
2019-01-17T02:06:08.754Z,9.83
2019-01-17T02:08:36.614Z,10.63
2019-01-17T02:14:11.949Z,10.95
2019-01-17T02:16:39.858Z,11.12
2019-01-17T02:19:07.782Z,9.83
2019-01-17T02:21:35.607Z,9.63
2019-01-17T02:24:03.492Z,9.75
2019-01-17T02:26:31.375Z,8.88
2019-01-17T02:28:59.236Z,10.48
2019-01-17T02:31:27.069Z,10.60
2019-01-17T02:33:54.993Z,11.25
2019-01-17T02:36:22.848Z,9.78
2019-01-17T02:38:50.733Z,11.20
2019-01-17T02:41:18.821Z,10.58
2019-01-17T02:43:46.740Z,10.50
2019-01-17T02:46:14.611Z,10.78
2019-01-17T02:48:42.434Z,10.18
2019-01-17T02:54:04.647Z,9.63
2019-01-17T02:56:32.602Z,9.48
2019-01-17T02:59:00.441Z,9.08
2019-01-17T03:01:28.294Z,9.20
2019-01-17T03:03:56.086Z,10.10
2019-01-17T03:06:23.946Z,8.65
2019-01-17T03:08:51.770Z,9.20
2019-01-17T03:11:19.651Z,9.00
2019-01-17T03:13:47.493Z,8.83
2019-01-17T03:16:15.405Z,8.93
2019-01-17T03:18:43.260Z,9.28
2019-01-17T03:23:58.187Z,7.45
2019-01-17T03:26:26.095Z,7.15
2019-01-17T03:28:53.921Z,6.60
2019-01-17T03:31:21.855Z,7.50
2019-01-17T03:33:49.676Z,7.47
2019-01-17T03:41:59.788Z,7.50
2019-01-17T03:44:27.615Z,7.72
2019-01-17T03:46:55.519Z,7.72
2019-01-17T03:49:23.590Z,8.10
2019-01-17T03:54:25.646Z,6.87
2019-01-17T03:56:53.530Z,6.95
2019-01-17T03:59:21.442Z,7.15
2019-01-17T04:01:49.287Z,6.70
2019-01-17T04:04:17.148Z,5.65
2019-01-17T04:06:45.009Z,5.47
2019-01-17T04:09:12.879Z,5.25
2019-01-17T04:14:38.885Z,6.47
2019-01-17T04:17:06.709Z,7.30
2019-01-17T04:19:34.636Z,7.92
2019-01-17T04:22:04.466Z,7.55
2019-01-17T04:24:32.306Z,7.42
2019-01-17T04:27:00.215Z,7.42
2019-01-17T04:29:28.309Z,7.47
2019-01-17T04:31:56.144Z,7.17
2019-01-17T04:34:24.113Z,7.33
2019-01-17T04:36:52.000Z,9.08
2019-01-17T04:39:19.931Z,8.40
2019-01-17T04:41:47.805Z,8.05
2019-01-17T04:44:15.808Z,9.25
2019-01-17T04:47:02.686Z,8.78
2019-01-17T04:49:30.839Z,10.43
2019-01-17T04:51:58.690Z,9.50
2019-01-17T04:54:26.664Z,11.65
2019-01-17T04:56:54.539Z,11.50
2019-01-17T04:59:22.422Z,11.73
2019-01-17T05:01:50.240Z,10.82
2019-01-17T05:04:18.134Z,11.15
2019-01-17T05:06:46.041Z,10.95
2019-01-17T05:09:13.984Z,11.08
2019-01-17T05:11:41.835Z,11.63
2019-01-17T05:14:09.734Z,9.90
2019-01-17T05:16:37.579Z,10.80
2019-01-17T05:19:05.428Z,11.10
2019-01-17T05:21:53.779Z,12.15
2019-01-17T05:24:21.652Z,10.75
2019-01-17T05:27:08.552Z,11.05
2019-01-17T05:35:38.695Z,11.68
2019-01-17T05:38:06.505Z,12.30
2019-01-17T05:40:53.710Z,12.35
2019-01-17T05:46:14.270Z,11.10
2019-01-17T05:48:42.118Z,10.15
2019-01-17T05:51:09.999Z,10.70
2019-01-17T05:53:37.835Z,9.95
2019-01-17T05:56:05.695Z,11.20
2019-01-17T05:58:33.589Z,10.28
2019-01-17T06:01:01.562Z,10.58
2019-01-17T06:06:23.839Z,10.40
2019-01-17T06:08:53.734Z,10.23
2019-01-17T06:14:15.797Z,10.60
2019-01-17T06:16:43.693Z,10.48
2019-01-17T06:19:11.553Z,10.28
2019-01-17T06:21:39.654Z,9.50
2019-01-17T06:24:26.542Z,10.35
2019-01-17T06:26:54.440Z,9.53
2019-01-17T06:29:22.278Z,9.25
2019-01-17T06:31:50.120Z,10.23
2019-01-17T06:34:18.030Z,10.63
2019-01-17T06:36:45.887Z,10.50
2019-01-17T06:39:13.695Z,10.43
2019-01-17T06:41:41.513Z,12.13
2019-01-17T06:44:09.330Z,11.88
2019-01-17T06:46:37.142Z,11.45
2019-01-17T06:49:04.973Z,11.83
2019-01-17T06:51:32.803Z,12.82
2019-01-17T06:54:00.645Z,12.23
2019-01-17T06:59:15.475Z,12.10
2019-01-17T07:01:43.301Z,13.15
2019-01-17T07:04:11.121Z,13.75
2019-01-17T07:06:38.913Z,12.75
2019-01-17T07:09:07.949Z,13.08
2019-01-17T07:11:35.778Z,12.90
2019-01-17T07:14:03.721Z,13.68
2019-01-17T07:16:31.558Z,15.08
2019-01-17T07:18:59.381Z,14.75
2019-01-17T07:21:27.205Z,15.25
2019-01-17T07:24:02.059Z,14.75
2019-01-17T07:26:29.882Z,15.35
2019-01-17T07:28:57.680Z,15.40
2019-01-17T07:31:25.497Z,15.20
2019-01-17T07:33:53.296Z,15.18
2019-01-17T07:36:21.137Z,16.00
2019-01-17T07:38:48.987Z,16.97
2019-01-17T07:41:16.842Z,16.75
2019-01-17T07:43:44.977Z,16.07
2019-01-17T07:46:12.794Z,14.73
2019-01-17T07:48:40.629Z,15.95
2019-01-17T07:51:08.507Z,15.93
2019-01-17T07:53:36.310Z,15.10
2019-01-17T07:59:09.619Z,16.15
2019-01-17T08:01:37.469Z,15.90
2019-01-17T08:04:05.258Z,16.12
2019-01-17T08:06:33.070Z,14.47
2019-01-17T08:09:00.874Z,14.50
2019-01-17T08:11:28.781Z,14.93
2019-01-17T08:13:56.582Z,15.80
2019-01-17T08:16:24.424Z,17.30
2019-01-17T08:18:52.221Z,15.40
2019-01-17T08:21:20.021Z,17.20
2019-01-17T08:23:48.058Z,16.12
2019-01-17T08:26:15.866Z,17.02
2019-01-17T08:28:43.681Z,18.27
2019-01-17T08:31:11.476Z,17.32
2019-01-17T08:33:39.322Z,18.87
2019-01-17T08:36:07.138Z,16.62
2019-01-17T08:38:34.971Z,16.82
2019-01-17T08:41:03.152Z,15.70
2019-01-17T08:43:31.003Z,15.10
2019-01-17T08:45:58.890Z,14.33
2019-01-17T08:48:26.732Z,15.78
2019-01-17T08:50:54.582Z,15.28
2019-01-17T08:53:22.452Z,15.20
2019-01-17T08:55:50.581Z,14.70
2019-01-17T08:58:18.406Z,13.98
2019-01-17T09:00:46.205Z,13.60
2019-01-17T09:03:14.041Z,14.58
2019-01-17T09:05:41.844Z,12.88
2019-01-17T09:08:09.637Z,13.30
2019-01-17T09:10:37.509Z,12.88
2019-01-17T09:13:05.310Z,13.95
2019-01-17T09:15:34.045Z,13.08
2019-01-17T09:18:01.829Z,12.68
2019-01-17T09:20:29.649Z,12.90
2019-01-17T09:22:57.463Z,12.65
2019-01-17T09:25:25.307Z,11.93
2019-01-17T09:27:53.411Z,12.37
2019-01-17T09:30:21.258Z,12.33
2019-01-17T09:32:49.067Z,12.10
2019-01-17T09:35:16.910Z,12.93
2019-01-17T09:37:44.710Z,12.88
2019-01-17T09:40:16.524Z,11.15
2019-01-17T09:42:44.325Z,11.08
2019-01-17T09:45:12.313Z,11.25
2019-01-17T09:47:40.132Z,11.85
2019-01-17T09:50:10.737Z,12.47
2019-01-17T09:52:38.558Z,12.03
2019-01-17T09:55:06.420Z,12.80
2019-01-17T09:57:34.258Z,12.18
2019-01-17T10:00:02.106Z,11.08
2019-01-17T10:02:30.011Z,10.98
2019-01-17T10:04:57.810Z,10.48
2019-01-17T10:07:25.629Z,9.78
2019-01-17T10:09:53.435Z,10.10
2019-01-17T10:12:21.263Z,9.53
2019-01-17T10:14:49.077Z,8.40
2019-01-17T10:17:35.970Z,8.00
2019-01-17T10:20:22.892Z,7.60
2019-01-17T10:23:09.812Z,7.30
2019-01-17T10:25:57.017Z,7.87
2019-01-17T10:28:43.921Z,7.35
2019-01-17T10:31:30.786Z,6.67
2019-01-17T10:34:17.682Z,7.22
2019-01-17T10:37:04.582Z,6.10
2019-01-17T10:39:51.515Z,6.87
2019-01-17T10:42:38.440Z,5.75
2019-01-17T10:45:25.312Z,6.70
2019-01-17T10:48:12.261Z,5.58
2019-01-17T10:50:59.284Z,6.15
2019-01-17T10:53:46.217Z,5.87
2019-01-17T10:56:33.118Z,6.58
2019-01-17T10:59:20.145Z,6.17
2019-01-17T11:02:07.017Z,5.47
2019-01-17T11:04:53.920Z,6.97
2019-01-17T11:07:40.805Z,6.50
2019-01-17T11:10:27.716Z,6.35
2019-01-17T11:13:14.579Z,6.62
2019-01-17T11:15:50.405Z,6.08
2019-01-17T11:18:22.424Z,5.90
2019-01-17T11:21:09.329Z,5.72
2019-01-17T11:23:56.246Z,6.05
2019-01-17T11:26:43.150Z,5.78
2019-01-17T11:29:30.091Z,5.70
2019-01-17T11:32:16.958Z,5.50
2019-01-17T11:35:03.861Z,5.95
2019-01-17T11:37:50.749Z,5.97
2019-01-17T11:40:37.658Z,4.80
2019-01-17T11:43:24.541Z,5.12
2019-01-17T11:46:11.453Z,4.97
2019-01-17T11:48:58.367Z,4.42
2019-01-17T11:51:45.302Z,4.55
2019-01-17T11:54:32.209Z,5.20
2019-01-17T11:57:19.105Z,4.80
2019-01-17T12:00:06.143Z,4.55
2019-01-17T12:02:53.038Z,4.42
2019-01-17T12:05:20.858Z,4.25
2019-01-17T12:07:48.661Z,3.65
2019-01-17T12:10:16.512Z,3.92
2019-01-17T12:12:44.325Z,3.72
2019-01-17T12:15:12.123Z,3.40
2019-01-17T12:17:39.965Z,2.95
2019-01-17T12:20:08.725Z,2.92
2019-01-17T12:22:36.563Z,3.00
2019-01-17T12:25:04.773Z,3.42
2019-01-17T12:27:32.606Z,3.30
2019-01-17T12:30:00.417Z,3.27
2019-01-17T12:32:28.220Z,5.17
2019-01-17T12:34:56.027Z,3.95
2019-01-17T12:37:23.854Z,3.50
2019-01-17T12:39:51.660Z,3.80
2019-01-17T12:42:19.493Z,3.50
2019-01-17T12:44:47.317Z,4.03
2019-01-17T12:47:15.167Z,3.87
2019-01-17T12:49:43.019Z,3.20
2019-01-17T12:52:10.846Z,3.55
2019-01-17T12:54:38.669Z,3.37
2019-01-17T12:57:06.490Z,3.90
2019-01-17T12:59:34.343Z,4.10
2019-01-17T13:02:02.162Z,3.77
2019-01-17T13:04:29.984Z,4.00
2019-01-17T13:06:57.803Z,3.50
2019-01-17T13:09:25.638Z,3.77
2019-01-17T13:11:53.546Z,3.77
2019-01-17T13:14:21.361Z,4.30
2019-01-17T13:16:49.162Z,4.67
2019-01-17T13:19:17.006Z,5.10
2019-01-17T13:21:44.814Z,5.67
2019-01-17T13:24:12.828Z,5.70
2019-01-17T13:26:40.637Z,5.60
2019-01-17T13:29:08.486Z,7.20
2019-01-17T13:31:36.346Z,20.45
2019-01-17T13:34:04.247Z,8.88
2019-01-17T13:36:32.089Z,7.47
2019-01-17T13:38:59.882Z,8.60
2019-01-17T13:41:27.694Z,7.78
2019-01-17T13:43:55.589Z,7.78
2019-01-17T13:46:23.429Z,7.50
2019-01-17T13:48:51.254Z,7.33
2019-01-17T13:51:19.114Z,7.42
2019-01-17T13:53:46.977Z,8.10
2019-01-17T13:56:15.267Z,8.05
2019-01-17T13:58:43.057Z,6.90
2019-01-17T14:01:10.947Z,7.00
2019-01-17T14:03:38.752Z,5.72
2019-01-17T14:06:06.638Z,5.78
2019-01-17T14:08:34.441Z,6.80
2019-01-17T14:11:02.262Z,5.83
2019-01-17T14:13:30.087Z,5.40
2019-01-17T14:15:58.000Z,5.53
2019-01-17T14:18:27.973Z,5.55
2019-01-17T14:20:55.401Z,4.83
2019-01-17T14:23:23.234Z,4.70
2019-01-17T14:25:51.007Z,4.58
2019-01-17T14:28:18.957Z,4.62
2019-01-17T14:30:46.753Z,3.90
2019-01-17T14:33:14.574Z,4.60
2019-01-17T14:35:42.436Z,4.87
2019-01-17T14:38:10.312Z,4.55
2019-01-17T14:40:38.127Z,4.78
2019-01-17T14:43:05.977Z,4.75
2019-01-17T14:45:33.774Z,4.22
2019-01-17T14:48:01.613Z,4.72
2019-01-17T14:50:30.313Z,3.65
2019-01-17T14:52:58.175Z,3.87
2019-01-17T14:55:25.989Z,4.33
2019-01-17T14:57:53.814Z,4.00
2019-01-17T15:00:22.978Z,4.08
2019-01-17T15:02:50.837Z,4.22
2019-01-17T15:05:18.930Z,3.62
2019-01-17T15:07:46.765Z,4.03
2019-01-17T15:10:19.126Z,5.10
2019-01-17T15:12:46.914Z,4.00
2019-01-17T15:15:14.778Z,4.42
2019-01-17T15:17:42.596Z,4.33
2019-01-17T15:20:11.815Z,3.40
2019-01-17T15:22:39.726Z,3.62
2019-01-17T15:25:07.582Z,4.05
2019-01-17T15:27:35.409Z,3.33
2019-01-17T15:30:03.238Z,3.62
2019-01-17T15:32:31.023Z,3.52
2019-01-17T15:34:58.851Z,3.50
2019-01-17T15:37:26.658Z,3.85
2019-01-17T15:39:54.506Z,3.10
2019-01-17T15:42:22.610Z,3.27
2019-01-17T15:44:50.469Z,3.30
2019-01-17T15:47:18.345Z,2.67
2019-01-17T15:49:46.179Z,2.55
2019-01-17T15:52:13.995Z,2.85
2019-01-17T15:54:41.891Z,2.90
2019-01-17T15:57:09.708Z,2.40
2019-01-17T15:59:37.520Z,2.50
2019-01-17T16:02:05.377Z,2.17
2019-01-17T16:04:33.190Z,2.40
2019-01-17T16:07:01.025Z,2.80
2019-01-17T16:09:28.858Z,2.77
2019-01-17T16:11:56.705Z,2.30
2019-01-17T16:14:24.653Z,2.58
2019-01-17T16:16:52.502Z,1.72
2019-01-17T16:19:20.305Z,2.67
2019-01-17T16:21:48.201Z,2.62
2019-01-17T16:24:16.014Z,2.72
2019-01-17T16:26:43.907Z,2.50
2019-01-17T16:29:11.697Z,2.00
2019-01-17T16:31:39.542Z,2.20
2019-01-17T16:34:07.396Z,1.90
2019-01-17T16:36:35.228Z,2.83
2019-01-17T16:39:03.151Z,2.60
2019-01-17T16:41:31.002Z,1.90
2019-01-17T16:43:58.837Z,3.35
2019-01-17T16:46:26.830Z,2.27
2019-01-17T16:48:55.103Z,2.62
2019-01-17T16:51:22.968Z,2.70
2019-01-17T16:53:50.924Z,2.42
2019-01-17T16:56:18.769Z,2.40
2019-01-17T16:58:46.618Z,2.40
2019-01-17T17:01:14.464Z,2.98
2019-01-17T17:03:42.309Z,2.50
2019-01-17T17:06:10.138Z,2.60
2019-01-17T17:08:38.071Z,2.62
2019-01-17T17:11:06.492Z,2.90
2019-01-17T17:13:35.474Z,2.67
2019-01-17T17:16:03.316Z,2.17
2019-01-17T17:18:31.328Z,2.08
2019-01-17T17:20:59.146Z,2.10
2019-01-17T17:23:27.082Z,2.00
2019-01-17T17:25:54.959Z,2.62
2019-01-17T17:28:22.781Z,2.08
2019-01-17T17:30:50.610Z,2.55
2019-01-17T17:33:18.518Z,2.77
2019-01-17T17:35:46.366Z,3.87
2019-01-17T17:38:14.231Z,3.27
2019-01-17T17:40:42.085Z,2.52
2019-01-17T17:43:09.954Z,2.80
2019-01-17T17:45:37.797Z,3.77
2019-01-17T17:48:05.917Z,3.42
2019-01-17T17:50:34.082Z,3.90
2019-01-17T17:53:01.966Z,4.17
2019-01-17T17:58:23.726Z,5.15
2019-01-17T18:00:58.922Z,5.58
2019-01-17T18:03:26.767Z,4.75
2019-01-17T18:05:54.705Z,4.67
2019-01-17T18:08:22.635Z,6.05
2019-01-17T18:13:25.541Z,6.37
2019-01-17T18:15:53.441Z,5.92
2019-01-17T18:18:21.342Z,5.00
2019-01-17T18:20:49.343Z,6.08
2019-01-17T18:23:17.210Z,6.50
2019-01-17T18:25:45.235Z,4.60
2019-01-17T18:28:13.095Z,4.87
2019-01-17T18:31:00.095Z,5.47
2019-01-17T18:33:27.961Z,4.05
2019-01-17T18:35:55.909Z,4.33
2019-01-17T18:38:23.867Z,4.75
2019-01-17T18:43:45.822Z,5.10
2019-01-17T18:46:13.692Z,5.33
2019-01-17T18:48:41.745Z,4.80
2019-01-17T18:51:09.670Z,4.25
2019-01-17T18:53:38.126Z,5.12
2019-01-17T18:56:06.073Z,4.90
2019-01-17T18:58:33.971Z,4.90
2019-01-17T19:01:01.822Z,4.60
2019-01-17T19:03:29.774Z,4.45
2019-01-17T19:05:57.644Z,5.35
2019-01-17T19:08:25.670Z,5.17
2019-01-17T19:10:53.543Z,4.53
2019-01-17T19:13:21.407Z,5.10
2019-01-17T19:15:49.603Z,4.75
2019-01-17T19:18:17.654Z,5.00
2019-01-17T19:21:04.639Z,5.00
2019-01-17T19:23:32.654Z,4.22
2019-01-17T19:26:15.832Z,5.42
2019-01-17T19:28:33.158Z,4.72
2019-01-17T19:34:08.545Z,5.50
2019-01-17T19:36:36.369Z,5.10
2019-01-17T19:42:00.462Z,5.65
2019-01-17T19:44:28.415Z,5.53
2019-01-17T19:46:56.333Z,6.58
2019-01-17T19:49:27.109Z,4.90
2019-01-17T19:51:54.998Z,6.30
2019-01-17T19:54:25.465Z,5.05
2019-01-17T19:56:53.379Z,5.92
2019-01-17T19:59:21.349Z,5.90
2019-01-17T20:01:49.237Z,5.65
2019-01-17T20:04:17.094Z,5.05
2019-01-17T20:06:45.410Z,5.67
2019-01-17T20:12:02.227Z,5.70
2019-01-17T20:14:30.074Z,4.62
2019-01-17T20:19:32.057Z,4.85
2019-01-17T20:21:59.970Z,4.80
2019-01-17T20:24:27.831Z,4.70
2019-01-17T20:26:55.835Z,4.90
2019-01-17T20:29:42.747Z,4.70
2019-01-17T20:32:10.735Z,4.78
2019-01-17T20:34:38.641Z,5.08
2019-01-17T20:40:00.977Z,4.85
2019-01-17T21:23:15.313Z,6.28
2019-01-17T21:28:16.663Z,5.62
2019-01-17T21:30:44.551Z,6.35
2019-01-17T21:33:12.441Z,6.50
2019-01-17T21:35:40.717Z,7.72
2019-01-17T21:38:08.574Z,7.80
2019-01-17T21:40:36.472Z,6.87
2019-01-17T21:43:04.407Z,7.15
2019-01-17T21:45:32.294Z,5.83
2019-01-17T21:48:00.101Z,6.35
2019-01-17T21:50:48.166Z,6.55
2019-01-17T21:53:16.085Z,7.05
2019-01-17T21:55:44.250Z,6.20
2019-01-17T21:58:12.094Z,6.10
2019-01-17T22:03:34.257Z,6.12
2019-01-17T22:06:02.187Z,5.80
2019-01-17T22:08:30.089Z,5.92
2019-01-17T22:10:57.999Z,5.83
2019-01-17T22:13:25.838Z,6.65
2019-01-17T22:15:53.742Z,6.05
2019-01-17T22:18:21.641Z,6.00
2019-01-17T22:20:49.627Z,5.33
2019-01-17T22:23:36.588Z,6.40
2019-01-17T22:29:02.420Z,6.03
2019-01-17T22:31:28.347Z,5.25
2019-01-17T22:33:56.206Z,5.50
2019-01-17T22:36:24.100Z,5.75
2019-01-17T22:38:51.952Z,5.53
2019-01-17T22:41:19.874Z,5.12
2019-01-17T22:43:47.833Z,5.37
2019-01-17T22:46:15.714Z,5.10
2019-01-17T22:48:43.689Z,5.50
2019-01-17T22:51:11.530Z,4.67
2019-01-17T22:53:39.445Z,4.95
2019-01-17T22:56:07.322Z,4.55
2019-01-17T22:58:37.700Z,5.05
2019-01-17T23:04:16.320Z,5.10
2019-01-17T23:06:44.205Z,5.60
2019-01-17T23:09:12.373Z,5.08
2019-01-17T23:11:40.204Z,5.03
2019-01-17T23:14:08.032Z,5.22
2019-01-17T23:16:35.930Z,4.70
2019-01-17T23:21:58.295Z,5.25
2019-01-17T23:24:26.184Z,5.80
2019-01-17T23:26:54.006Z,5.75
2019-01-17T23:29:21.885Z,5.78
2019-01-17T23:31:50.077Z,5.95
2019-01-17T23:34:36.993Z,5.65
2019-01-17T23:37:04.827Z,6.45
2019-01-17T23:39:32.745Z,5.22
2019-01-17T23:42:00.680Z,5.35
2019-01-17T23:44:28.532Z,5.40
2019-01-17T23:46:56.384Z,5.70
2019-01-17T23:49:24.238Z,5.30
2019-01-17T23:51:52.213Z,5.95
2019-01-17T23:54:20.077Z,6.03
2019-01-17T23:56:47.918Z,5.53
2019-01-17T23:59:15.896Z,4.97
